Time;durP1;ratioP1;P1;durP2;ratioP2;P2;SDS_P1;SDS_P2;PMS_P1;PMS_P2;Temp;Humidity;BMP_temperature;BMP_pressure;BME280_temperature;BME280_humidity;BME280_pressure;Samples;Min_cycle;Max_cycle;Signal;HPM_P1;HPM_P2
2021/12/31 00:01:56;;;;;;;4.73;3.57;;;;;;;6.91;97.95;98078.22;1757076;80;20967;-56
2021/12/31 00:04:23;;;;;;;8.73;7.75;;;;;;;6.90;97.95;98079.29;1747442;81;20987;-57
2021/12/31 00:06:50;;;;;;;4.00;2.70;;;;;;;6.91;98.06;98081.45;1719789;82;21382;-56
2021/12/31 00:09:17;;;;;;;3.22;2.30;;;;;;;6.91;98.23;98079.56;1717881;82;21004;-57
2021/12/31 00:11:44;;;;;;;3.27;1.60;;;;;;;6.95;98.23;98083.93;1724058;82;20969;-57
2021/12/31 00:14:11;;;;;;;3.35;2.08;;;;;;;6.95;98.17;98085.27;1752331;81;20962;-57
2021/12/31 00:16:38;;;;;;;3.52;1.82;;;;;;;6.92;98.45;98092.50;1749512;80;20976;-57
2021/12/31 00:19:05;;;;;;;4.20;1.72;;;;;;;6.95;98.25;98092.82;1741286;82;22108;-57
2021/12/31 00:21:36;;;;;;;1.22;0.98;;;;;;;6.93;98.44;98097.66;1742310;80;20992;-57
2021/12/31 00:24:01;;;;;;;2.75;1.50;;;;;;;6.97;98.17;98096.61;1721092;83;26501;-58
2021/12/31 00:26:28;;;;;;;4.60;2.15;;;;;;;6.92;98.38;98096.54;1749609;80;21012;-57
2021/12/31 00:28:55;;;;;;;3.35;1.72;;;;;;;6.94;98.37;98096.59;1740666;81;21484;-57
2021/12/31 00:31:22;;;;;;;2.75;1.67;;;;;;;6.94;98.68;98097.13;1750383;80;21381;-57
2021/12/31 00:33:49;;;;;;;3.67;2.17;;;;;;;6.95;98.33;98092.82;1741435;81;21004;-57
2021/12/31 00:36:16;;;;;;;3.60;1.87;;;;;;;6.91;98.33;98096.27;1718701;82;21056;-58
2021/12/31 00:38:43;;;;;;;2.47;1.52;;;;;;;6.93;98.71;98103.05;1718209;82;21032;-58
2021/12/31 00:41:11;;;;;;;3.50;2.22;;;;;;;6.95;98.70;98096.05;1726215;81;37487;-58
2021/12/31 00:43:38;;;;;;;3.80;3.27;;;;;;;6.96;98.86;98102.53;1736486;82;21446;-58
2021/12/31 00:46:05;;;;;;;3.15;2.00;;;;;;;6.99;98.99;98099.31;1758883;80;20985;-58
2021/12/31 00:48:31;;;;;;;4.08;3.05;;;;;;;7.03;98.92;98103.68;1750841;81;20942;-57
2021/12/31 00:50:58;;;;;;;3.92;2.42;;;;;;;7.02;98.81;98102.86;1763433;80;21412;-57
2021/12/31 00:53:25;;;;;;;5.08;3.22;;;;;;;7.02;99.07;98102.86;1748314;80;21503;-57
2021/12/31 00:55:52;;;;;;;3.72;1.75;;;;;;;7.04;99.07;98103.42;1743706;81;21366;-56
2021/12/31 00:58:19;;;;;;;4.58;2.02;;;;;;;7.06;99.02;98112.59;1744404;81;21028;-56
2021/12/31 01:00:46;;;;;;;4.25;2.42;;;;;;;7.06;98.90;98103.16;1747093;80;21007;-56
2021/12/31 01:03:13;;;;;;;4.45;2.40;;;;;;;7.04;99.06;98103.42;1773899;80;20969;-55
2021/12/31 01:05:40;;;;;;;5.08;2.95;;;;;;;7.06;99.03;98117.44;1770338;80;20905;-55
2021/12/31 01:08:07;;;;;;;5.00;2.62;;;;;;;7.06;99.02;98110.70;1751916;80;21412;-55
2021/12/31 01:10:34;;;;;;;3.62;2.58;;;;;;;7.10;99.06;98112.91;1751897;80;20965;-54
2021/12/31 01:13:07;;;;;;;7.40;2.90;;;;;;;7.08;99.10;98114.48;1751909;80;20988;-53
2021/12/31 01:15:40;;;;;;;4.03;2.37;;;;;;;7.12;99.18;98114.27;1755744;80;20953;-54
2021/12/31 01:20:38;;;;;;;4.92;2.40;;;;;;;7.16;99.14;98114.03;1752076;80;21305;-55
2021/12/31 01:23:08;;;;;;;7.58;4.20;;;;;;;7.18;99.31;98111.91;1771764;80;21044;-54
2021/12/31 01:25:34;;;;;;;;;;;;;;;7.20;99.33;98121.09;1775018;80;20992;-55
2021/12/31 01:28:01;;;;;;;9.55;4.72;;;;;;;7.23;99.27;98115.17;1769332;80;20422;-55
2021/12/31 01:30:27;;;;;;;3.60;2.10;;;;;;;7.23;99.54;98113.29;1774210;80;21453;-56
2021/12/31 01:32:55;;;;;;;4.87;3.95;;;;;;;7.26;99.28;98121.39;1739087;81;21260;-56
2021/12/31 01:35:22;;;;;;;4.33;2.40;;;;;;;7.27;99.28;98116.30;1740962;81;20961;-54
2021/12/31 01:37:49;;;;;;;2.92;2.00;;;;;;;7.29;99.40;98119.55;1750496;80;20968;-56
2021/12/31 01:40:16;;;;;;;2.62;1.60;;;;;;;7.28;99.45;98117.93;1745624;81;20985;-55
2021/12/31 01:42:43;;;;;;;3.65;2.10;;;;;;;7.32;99.37;98129.81;1749484;80;21019;-56
2021/12/31 01:45:16;;;;;;;4.17;1.72;;;;;;;7.30;99.47;98124.69;1745883;81;21997;-56
2021/12/31 01:48:33;;;;;;;3.70;2.40;;;;;;;7.38;99.31;98132.03;1755120;80;21006;-55
2021/12/31 01:50:15;;;;;;;1.82;1.30;;;;;;;7.31;99.29;98132.23;1741853;80;20988;-56
2021/12/31 01:52:42;;;;;;;2.95;1.57;;;;;;;7.35;99.43;98136.06;1770202;80;20962;-55
2021/12/31 01:55:12;;;;;;;5.17;1.70;;;;;;;7.32;99.35;98136.02;1777742;80;21406;-56
2021/12/31 01:57:40;;;;;;;2.70;1.65;;;;;;;7.34;99.57;98137.10;1772742;80;22391;-55
2021/12/31 02:00:09;;;;;;;0.98;0.82;;;;;;;7.36;99.72;98137.69;1777965;80;21057;-56
2021/12/31 02:02:36;;;;;;;1.50;1.10;;;;;;;7.42;99.49;98135.29;1758521;80;21480;-56
2021/12/31 02:05:04;;;;;;;2.42;1.52;;;;;;;7.38;99.33;98138.77;1752087;81;21055;-56
2021/12/31 02:07:31;;;;;;;2.15;1.05;;;;;;;7.35;99.54;98140.11;1766065;80;21014;-56
2021/12/31 02:09:58;;;;;;;4.92;1.67;;;;;;;7.36;99.67;98147.13;1777787;80;21407;-55
2021/12/31 02:12:25;;;;;;;3.70;1.82;;;;;;;7.36;99.57;98143.08;1760791;80;22100;-56
2021/12/31 02:14:52;;;;;;;3.65;1.62;;;;;;;7.37;99.60;98134.45;1745632;81;21417;-55
2021/12/31 02:17:19;;;;;;;2.80;1.67;;;;;;;7.38;99.60;98138.23;1759374;80;20984;-56
2021/12/31 02:20:05;;;;;;;2.45;1.52;;;;;;;7.42;99.61;98138.52;1745903;81;21004;-56
2021/12/31 02:22:31;;;;;;;2.60;2.17;;;;;;;7.38;99.76;98136.89;1754234;80;21373;-56
2021/12/31 02:25:00;;;;;;;3.83;3.42;;;;;;;7.42;99.82;98129.09;1752454;81;21051;-56
2021/12/31 02:27:27;;;;;;;3.95;2.72;;;;;;;7.39;99.68;98137.70;1771721;80;20990;-55
2021/12/31 02:29:54;;;;;;;4.60;2.90;;;;;;;7.39;99.57;98129.08;1777920;80;20999;-56
2021/12/31 02:32:21;;;;;;;2.45;1.67;;;;;;;7.40;99.82;98125.30;1749859;80;20991;-56
2021/12/31 02:34:48;;;;;;;2.70;1.50;;;;;;;7.41;99.66;98132.32;1752195;81;21989;-56
2021/12/31 02:37:15;;;;;;;2.95;1.30;;;;;;;7.41;99.74;98133.67;1754711;80;21365;-56
2021/12/31 02:39:43;;;;;;;3.08;1.42;;;;;;;7.43;99.85;98130.70;1752276;81;20992;-56
2021/12/31 02:42:10;;;;;;;2.42;0.95;;;;;;;7.47;99.70;98127.26;1756210;80;21417;-56
2021/12/31 02:44:37;;;;;;;3.05;1.60;;;;;;;7.48;99.83;98133.46;1745192;81;21037;-57
2021/12/31 02:47:06;;;;;;;1.95;1.20;;;;;;;7.50;99.89;98126.73;1755920;80;21035;-57
2021/12/31 02:49:39;;;;;;;2.33;0.88;;;;;;;7.50;99.62;98130.78;1743898;82;20888;-57
2021/12/31 02:52:11;;;;;;;2.65;1.75;;;;;;;7.52;99.53;98130.02;1751245;80;21451;-57
2021/12/31 02:54:41;;;;;;;2.40;1.22;;;;;;;7.49;99.80;98138.59;1752523;81;20964;-57
2021/12/31 02:57:08;;;;;;;2.60;1.30;;;;;;;7.49;99.93;98134.55;1755572;80;20956;-57
2021/12/31 02:59:35;;;;;;;3.05;1.80;;;;;;;7.50;100.00;98125.39;1752153;81;21401;-57
2021/12/31 03:02:03;;;;;;;8.13;5.03;;;;;;;7.53;100.00;98136.22;1761219;80;21066;-56
2021/12/31 03:04:30;;;;;;;2.62;1.50;;;;;;;7.55;99.87;98137.58;1745244;81;21117;-57
2021/12/31 03:06:57;;;;;;;2.80;1.90;;;;;;;7.55;99.95;98136.23;1752059;80;20953;-57
2021/12/31 03:09:24;;;;;;;2.95;2.02;;;;;;;7.57;99.86;98133.27;1752275;81;20988;-57
2021/12/31 03:11:53;;;;;;;3.50;1.47;;;;;;;7.57;99.83;98132.73;1765675;80;21427;-57
2021/12/31 03:14:20;;;;;;;2.20;1.60;;;;;;;7.55;99.86;98116.00;1778170;80;20970;-57
2021/12/31 03:16:47;;;;;;;2.17;1.67;;;;;;;7.55;99.86;98116.00;1760240;80;21735;-57
2021/12/31 03:19:14;;;;;;;1.80;1.45;;;;;;;7.61;100.00;98128.47;1752215;81;20976;-57
2021/12/31 03:21:41;;;;;;;2.60;1.30;;;;;;;7.62;100.00;98122.00;1757620;80;20997;-57
2021/12/31 03:24:08;;;;;;;1.80;1.70;;;;;;;7.67;100.00;98129.30;1745797;81;21429;-58
2021/12/31 03:26:35;;;;;;;1.47;1.10;;;;;;;7.68;100.00;98138.20;1755202;80;20980;-57
2021/12/31 03:29:02;;;;;;;2.52;1.25;;;;;;;7.70;100.00;98132.03;1745706;81;20965;-57
2021/12/31 03:31:28;;;;;;;1.85;1.35;;;;;;;7.69;100.00;98135.27;1752744;80;20988;-57
2021/12/31 03:33:55;;;;;;;1.60;1.42;;;;;;;7.72;99.92;98136.09;1777790;80;20985;-57
2021/12/31 03:36:22;;;;;;;1.55;1.45;;;;;;;7.76;99.97;98138.53;1759256;80;21356;-57
2021/12/31 03:38:49;;;;;;;1.85;1.27;;;;;;;7.78;100.00;98136.42;1777708;80;20982;-57
2021/12/31 03:41:16;;;;;;;2.33;1.85;;;;;;;7.81;99.89;98130.49;1763090;80;21023;-57
2021/12/31 03:43:43;;;;;;;1.50;1.35;;;;;;;7.83;99.80;98135.63;1777754;80;20986;-57
2021/12/31 03:46:10;;;;;;;1.87;1.12;;;;;;;7.86;99.79;98135.94;1767385;80;20956;-57
2021/12/31 03:48:37;;;;;;;1.42;1.00;;;;;;;7.89;99.72;98142.69;1761096;80;22130;-57
2021/12/31 03:51:04;;;;;;;2.75;1.90;;;;;;;7.92;99.53;98147.56;1748061;80;21470;-57
2021/12/31 03:53:31;;;;;;;5.17;4.78;;;;;;;7.89;99.42;98144.85;1752145;80;21431;-57
2021/12/31 03:55:58;;;;;;;5.45;5.03;;;;;;;7.87;99.57;98142.95;1755808;80;20976;-57
2021/12/31 03:58:25;;;;;;;1.35;1.25;;;;;;;7.86;99.55;98144.03;1754544;80;21003;-57
2021/12/31 04:00:52;;;;;;;2.12;1.92;;;;;;;7.86;99.73;98141.34;1751998;80;22083;-57
2021/12/31 04:03:19;;;;;;;2.45;1.87;;;;;;;7.86;99.99;98139.98;1752107;80;21432;-56
2021/12/31 04:05:45;;;;;;;2.52;1.75;;;;;;;7.90;99.84;98142.97;1758273;80;21026;-57
2021/12/31 04:08:12;;;;;;;1.55;1.00;;;;;;;7.88;99.61;98145.12;1746477;80;20973;-56
2021/12/31 04:10:39;;;;;;;2.67;1.57;;;;;;;7.85;99.56;98144.27;1744815;81;21036;-57
2021/12/31 04:13:06;;;;;;;1.95;1.02;;;;;;;7.82;99.72;98148.30;1772329;80;21441;-56
2021/12/31 04:15:33;;;;;;;1.70;1.37;;;;;;;7.82;99.69;98139.39;1772300;80;21460;-57
2021/12/31 04:18:00;;;;;;;1.70;1.20;;;;;;;7.81;99.72;98148.56;1746617;80;20969;-56
2021/12/31 04:20:39;;;;;;;1.60;0.93;;;;;;;7.80;99.73;98147.75;1745468;81;21060;-56
2021/12/31 04:23:14;;;;;;;1.60;1.25;;;;;;;7.79;99.68;98146.13;1774342;80;21006;-56
2021/12/31 04:25:39;;;;;;;2.15;1.75;;;;;;;7.80;99.92;98151.80;1761757;80;21323;-56
2021/12/31 04:28:06;;;;;;;2.15;1.47;;;;;;;7.82;99.96;98153.70;1772236;80;21001;-56
2021/12/31 04:30:33;;;;;;;2.87;1.50;;;;;;;7.85;99.92;98151.82;1775905;80;21501;-56
2021/12/31 04:33:00;;;;;;;3.00;1.32;;;;;;;7.86;99.83;98151.28;1749533;80;21031;-56
2021/12/31 04:35:27;;;;;;;1.98;1.32;;;;;;;7.89;99.84;98149.44;1746130;81;21047;-56
2021/12/31 04:37:54;;;;;;;4.78;2.70;;;;;;;7.91;99.79;98160.77;1742536;82;21567;-56
2021/12/31 04:40:21;;;;;;;4.37;4.00;;;;;;;7.85;99.97;98166.66;1740273;81;20992;-56
2021/12/31 04:42:49;;;;;;;2.72;1.90;;;;;;;7.86;100.00;98164.77;1774957;80;21041;-56
2021/12/31 04:45:16;;;;;;;5.58;2.55;;;;;;;7.87;100.00;98171.82;1776279;80;21044;-56
2021/12/31 04:47:42;;;;;;;2.22;1.40;;;;;;;7.89;99.80;98165.09;1739482;82;21012;-54
2021/12/31 04:50:10;;;;;;;2.52;1.90;;;;;;;7.86;99.79;98168.81;1755725;80;21210;-54
2021/12/31 04:52:36;;;;;;;2.40;1.70;;;;;;;7.85;99.90;98166.66;1754721;80;21571;-53
2021/12/31 04:55:05;;;;;;;1.82;1.62;;;;;;;7.88;100.00;98160.77;1751945;81;21452;-54
2021/12/31 04:57:32;;;;;;;1.15;1.00;;;;;;;7.87;99.91;98159.69;1766108;80;21443;-53
2021/12/31 04:59:59;;;;;;;1.77;1.30;;;;;;;7.88;100.00;98166.70;1777870;80;21029;-54
2021/12/31 05:02:26;;;;;;;1.20;1.00;;;;;;;7.89;100.00;98171.83;1766888;80;21258;-51
2021/12/31 05:04:52;;;;;;;1.50;0.90;;;;;;;7.90;99.67;98168.06;1777919;80;21450;-53
2021/12/31 05:07:19;;;;;;;2.10;1.07;;;;;;;7.88;99.93;98159.95;1754877;80;21012;-53
2021/12/31 05:09:46;;;;;;;1.40;0.90;;;;;;;7.90;99.82;98159.16;1745342;81;21493;-54
2021/12/31 05:12:20;;;;;;;1.62;1.10;;;;;;;7.91;99.85;98167.52;1746315;80;21424;-52
2021/12/31 05:14:43;;;;;;;1.05;0.80;;;;;;;7.93;99.63;98164.02;1752225;81;21357;-52
2021/12/31 05:17:10;;;;;;;1.55;1.00;;;;;;;7.91;99.69;98165.63;1762223;80;21431;-50
2021/12/31 05:19:37;;;;;;;2.22;1.10;;;;;;;7.95;99.77;98170.50;1777774;80;21465;-50
2021/12/31 05:22:04;;;;;;;1.90;1.52;;;;;;;7.95;99.62;98167.80;1756977;80;20952;-52
2021/12/31 05:24:31;;;;;;;3.25;3.02;;;;;;;7.93;99.65;98167.53;1752005;81;21508;-52
2021/12/31 05:26:58;;;;;;;4.05;3.10;;;;;;;7.94;99.62;98165.64;1752252;80;21311;-50
2021/12/31 05:29:25;;;;;;;2.02;1.12;;;;;;;7.97;99.61;98171.08;1752183;81;20988;-49
2021/12/31 05:31:52;;;;;;;1.30;1.10;;;;;;;7.98;99.37;98164.07;1756911;80;20932;-49
2021/12/31 05:34:19;;;;;;;2.22;1.72;;;;;;;7.96;99.51;98160.02;1752236;81;20988;-52
2021/12/31 05:36:48;;;;;;;1.72;1.02;;;;;;;7.97;99.60;98161.64;1752980;80;20992;-48
2021/12/31 05:39:15;;;;;;;1.30;1.07;;;;;;;8.00;99.53;98162.45;1745664;81;21695;-51
2021/12/31 05:41:42;;;;;;;1.47;1.07;;;;;;;8.03;99.51;98161.92;1754918;80;20974;-52
2021/12/31 05:44:09;;;;;;;1.42;0.70;;;;;;;8.05;99.48;98167.36;1758256;80;21004;-49
2021/12/31 05:46:36;;;;;;;2.50;1.42;;;;;;;8.02;99.49;98163.00;1757403;80;20948;-51
2021/12/31 05:49:04;;;;;;;3.22;1.40;;;;;;;8.05;99.52;98162.50;1775391;80;20984;-51
2021/12/31 05:51:31;;;;;;;1.85;1.02;;;;;;;8.07;99.51;98165.75;1758924;80;21418;-50
2021/12/31 05:53:58;;;;;;;1.70;1.20;;;;;;;8.11;99.50;98166.30;1770134;80;20997;-51
2021/12/31 05:56:25;;;;;;;1.95;1.17;;;;;;;8.13;99.51;98167.42;1772682;80;20993;-52
2021/12/31 05:58:52;;;;;;;8.25;4.30;;;;;;;8.14;99.44;98167.69;1752215;81;21459;-53
2021/12/31 06:01:19;;;;;;;4.33;2.20;;;;;;;8.16;99.52;98162.84;1752249;79;21841;-53
2021/12/31 06:03:46;;;;;;;5.10;2.50;;;;;;;8.16;99.43;98162.84;1745374;81;21330;-52
2021/12/31 06:06:13;;;;;;;3.90;1.62;;;;;;;8.22;99.29;98165.86;1747660;80;20950;-54
2021/12/31 06:08:39;;;;;;;1.40;1.00;;;;;;;8.20;99.23;98165.28;1746563;80;21416;-56
2021/12/31 06:11:08;;;;;;;3.87;2.37;;;;;;;8.16;99.16;98173.09;1740693;81;21544;-56
2021/12/31 06:13:37;;;;;;;2.22;1.60;;;;;;;8.14;99.47;98177.14;1747046;81;21025;-57
2021/12/31 06:16:05;;;;;;;2.05;1.40;;;;;;;8.15;99.54;98179.57;1736615;82;21304;-57
2021/12/31 06:18:32;;;;;;;1.57;1.43;;;;;;;8.16;99.46;98178.49;1727697;82;20961;-58
2021/12/31 06:20:59;;;;;;;1.87;1.00;;;;;;;8.19;99.55;98181.20;1736542;82;20981;-58
2021/12/31 06:23:26;;;;;;;2.30;1.27;;;;;;;8.22;99.35;98178.00;1752420;80;21000;-59
2021/12/31 06:25:53;;;;;;;1.50;1.32;;;;;;;8.20;99.28;98185.52;1751168;80;21031;-59
2021/12/31 06:28:19;;;;;;;2.75;1.50;;;;;;;8.20;99.22;98182.31;1751230;80;21393;-59
2021/12/31 06:30:46;;;;;;;2.60;1.37;;;;;;;8.19;99.61;98180.66;1720428;82;21381;-59
2021/12/31 06:33:13;;;;;;;67.03;7.08;;;;;;;8.20;99.68;98178.78;1776744;80;21355;-58
2021/12/31 06:35:40;;;;;;;2.33;1.37;;;;;;;8.21;99.62;98183.12;1770560;80;20993;-58
2021/12/31 06:38:07;;;;;;;2.95;2.05;;;;;;;8.24;99.56;98189.88;1720843;82;21083;-58
2021/12/31 06:40:35;;;;;;;3.30;2.20;;;;;;;8.25;99.38;98190.16;1747023;81;21755;-58
2021/12/31 06:43:02;;;;;;;3.22;1.85;;;;;;;8.25;99.38;98197.72;1720797;82;20972;-57
2021/12/31 06:45:30;;;;;;;4.22;2.47;;;;;;;8.28;99.20;98198.53;1742437;82;20966;-57
2021/12/31 06:47:57;;;;;;;3.67;2.33;;;;;;;8.29;99.08;98203.40;1747729;81;21041;-57
2021/12/31 06:50:24;;;;;;;3.75;1.80;;;;;;;8.23;99.11;98207.97;1770382;80;21016;-57
2021/12/31 06:52:51;;;;;;;2.75;1.67;;;;;;;8.23;99.11;98211.20;1751669;80;22078;-57
2021/12/31 06:55:18;;;;;;;3.50;2.75;;;;;;;8.26;99.12;98212.03;1745129;81;21468;-57
2021/12/31 06:57:47;;;;;;;2.25;1.40;;;;;;;8.25;99.26;98205.01;1743217;82;21421;-57
2021/12/31 07:00:14;;;;;;;2.72;1.65;;;;;;;8.27;99.20;98213.65;1718857;82;21056;-57
2021/12/31 07:02:41;;;;;;;2.98;1.98;;;;;;;8.27;99.28;98213.11;1752352;80;21424;-57
2021/12/31 07:05:08;;;;;;;2.75;1.85;;;;;;;8.29;99.26;98214.20;1715288;83;21273;-57
2021/12/31 07:07:35;;;;;;;2.87;1.50;;;;;;;8.33;99.18;98222.07;1764672;80;20998;-57
2021/12/31 07:10:05;;;;;;;2.37;1.20;;;;;;;8.35;99.20;98218.59;1776363;80;21041;-57
2021/12/31 07:12:32;;;;;;;1.67;1.25;;;;;;;8.31;99.09;98218.83;1738473;80;21082;-57
2021/12/31 07:14:59;;;;;;;2.45;1.62;;;;;;;8.31;99.11;98217.47;1703934;83;21021;-57
2021/12/31 07:17:28;;;;;;;2.27;1.25;;;;;;;8.28;99.13;98220.13;1743460;82;21400;-57
2021/12/31 07:19:56;;;;;;;3.00;2.02;;;;;;;8.34;98.95;98221.80;1744385;81;20993;-57
2021/12/31 07:22:23;;;;;;;3.58;3.27;;;;;;;8.28;99.24;98205.83;1751283;80;20965;-57
2021/12/31 07:24:50;;;;;;;3.37;2.42;;;;;;;8.30;99.16;98211.27;1749010;81;20983;-57
2021/12/31 07:27:17;;;;;;;3.47;2.72;;;;;;;8.31;99.10;98218.28;1754479;80;21051;-57
2021/12/31 07:29:44;;;;;;;19.60;8.33;;;;;;;8.35;99.07;98211.84;1741974;82;21399;-57
2021/12/31 07:32:11;;;;;;;20.50;8.10;;;;;;;8.28;99.07;98211.22;1753378;80;21417;-57
2021/12/31 07:34:38;;;;;;;7.37;2.75;;;;;;;8.30;99.06;98220.72;1751134;80;21016;-57
2021/12/31 07:37:05;;;;;;;9.13;3.77;;;;;;;8.30;99.10;98219.90;1766322;80;21009;-57
2021/12/31 07:39:34;;;;;;;4.90;2.10;;;;;;;8.31;99.09;98225.03;1749791;80;21123;-57
2021/12/31 07:42:00;;;;;;;19.77;6.12;;;;;;;8.35;99.12;98218.59;1751469;80;21425;-57
2021/12/31 07:44:27;;;;;;;18.55;7.45;;;;;;;8.37;99.05;98222.66;1750260;80;21171;-57
2021/12/31 07:46:54;;;;;;;8.98;4.05;;;;;;;8.41;98.90;98229.72;1744846;81;21027;-57
2021/12/31 07:49:21;;;;;;;3.52;1.57;;;;;;;8.42;98.94;98234.04;1759888;80;21049;-57
2021/12/31 07:51:48;;;;;;;14.30;6.72;;;;;;;8.43;98.89;98232.96;1737024;80;21416;-58
2021/12/31 07:54:15;;;;;;;12.37;3.85;;;;;;;8.45;98.87;98228.92;1755326;81;21246;-57
2021/12/31 07:56:42;;;;;;;7.65;3.37;;;;;;;8.51;98.68;98231.13;1748569;80;21054;-57
2021/12/31 07:59:09;;;;;;;3.95;2.17;;;;;;;8.51;98.46;98232.47;1745489;82;21040;-57
2021/12/31 08:01:35;;;;;;;6.33;3.00;;;;;;;8.51;98.51;98231.66;1751121;80;21001;-57
2021/12/31 08:04:03;;;;;;;9.13;4.62;;;;;;;8.53;98.45;98233.56;1744421;82;21063;-57
2021/12/31 08:06:29;;;;;;;9.85;5.20;;;;;;;8.53;98.48;98236.26;1749091;80;21293;-57
2021/12/31 08:08:56;;;;;;;8.50;5.60;;;;;;;8.52;98.58;98233.28;1736921;80;21508;-57
2021/12/31 08:11:23;;;;;;;6.58;3.72;;;;;;;8.54;98.53;98235.19;1713870;82;21000;-57
2021/12/31 08:13:50;;;;;;;4.37;2.95;;;;;;;8.54;98.31;98231.94;1740303;81;20993;-57
2021/12/31 08:16:17;;;;;;;3.92;2.20;;;;;;;8.56;98.34;98230.36;1753678;80;20972;-57
2021/12/31 08:18:44;;;;;;;7.55;4.15;;;;;;;8.57;98.37;98231.44;1739149;81;22164;-57
2021/12/31 08:21:11;;;;;;;4.28;2.62;;;;;;;8.60;98.16;98229.55;1726997;80;21414;-57
2021/12/31 08:23:38;;;;;;;3.00;1.70;;;;;;;8.55;98.32;98232.24;1748480;80;21158;-58
2021/12/31 08:26:05;;;;;;;4.25;2.65;;;;;;;8.59;98.18;98240.63;1706706;81;20999;-57
2021/12/31 08:28:32;;;;;;;4.10;2.37;;;;;;;8.55;98.36;98239.53;1746619;80;21007;-57
2021/12/31 08:30:59;;;;;;;3.10;1.80;;;;;;;8.54;98.33;98231.13;1744557;80;21581;-57
2021/12/31 08:33:26;;;;;;;4.47;1.82;;;;;;;8.53;98.53;98236.26;1711060;82;20982;-58
2021/12/31 08:35:55;;;;;;;2.42;1.82;;;;;;;8.53;98.63;98243.83;1762876;80;21020;-57
2021/12/31 08:38:23;;;;;;;2.45;2.02;;;;;;;8.54;98.62;98247.34;1759109;81;21399;-57
2021/12/31 08:40:50;;;;;;;2.83;1.50;;;;;;;8.54;98.53;98252.73;1759506;80;20978;-57
2021/12/31 08:43:17;;;;;;;4.30;2.37;;;;;;;8.55;98.44;98259.80;1747721;80;21473;-57
2021/12/31 08:45:43;;;;;;;3.00;2.17;;;;;;;8.55;98.43;98261.14;1748532;80;21452;-57
2021/12/31 08:48:10;;;;;;;2.42;1.70;;;;;;;8.56;98.60;98266.82;1748750;80;20980;-57
2021/12/31 08:50:37;;;;;;;4.75;2.10;;;;;;;8.54;98.33;98263.00;1753668;81;21007;-57
2021/12/31 08:53:04;;;;;;;2.52;1.67;;;;;;;8.49;98.71;98262.98;1763943;80;20996;-57
2021/12/31 08:55:31;;;;;;;3.35;1.57;;;;;;;8.51;98.47;98270.28;1740237;80;22110;-57
2021/12/31 08:57:58;;;;;;;2.00;1.47;;;;;;;8.52;98.65;98272.45;1762497;80;21566;-57
2021/12/31 09:00:25;;;;;;;2.20;1.62;;;;;;;8.49;98.49;98279.19;1749289;81;21029;-57
2021/12/31 09:02:52;;;;;;;3.98;2.25;;;;;;;8.49;98.67;98268.39;1739670;81;21013;-58
2021/12/31 09:05:19;;;;;;;2.05;1.80;;;;;;;8.48;98.78;98260.02;1743621;81;21018;-57
2021/12/31 09:07:46;;;;;;;3.60;1.85;;;;;;;8.52;98.83;98271.91;1706930;81;21389;-57
2021/12/31 09:10:13;;;;;;;3.02;1.90;;;;;;;8.57;98.74;98271.14;1695461;83;21005;-57
2021/12/31 09:12:40;;;;;;;2.50;1.20;;;;;;;8.63;98.49;98276.33;1717374;82;21432;-57
2021/12/31 09:15:09;;;;;;;3.95;2.75;;;;;;;8.70;98.40;98269.31;1728858;82;21429;-57
2021/12/31 09:17:35;;;;;;;3.90;2.40;;;;;;;8.85;98.05;98274.81;1715433;82;21457;-57
2021/12/31 09:20:04;;;;;;;5.53;3.20;;;;;;;8.85;98.05;98274.81;1722059;82;21393;-57
2021/12/31 09:22:31;;;;;;;3.92;1.70;;;;;;;8.93;97.79;98270.80;1712446;83;21409;-57
2021/12/31 09:24:58;;;;;;;3.25;1.90;;;;;;;9.03;97.67;98274.36;1714903;82;21021;-57
2021/12/31 09:27:26;;;;;;;3.37;2.12;;;;;;;9.13;97.49;98267.38;1718347;81;21095;-58
2021/12/31 09:29:53;;;;;;;5.43;3.87;;;;;;;9.16;97.30;98258.21;1716672;82;21041;-57
2021/12/31 09:32:20;;;;;;;7.92;4.47;;;;;;;9.19;96.97;98267.67;1725315;82;21308;-57
2021/12/31 09:34:48;;;;;;;5.00;1.65;;;;;;;9.19;96.95;98268.48;1720668;81;21065;-57
2021/12/31 09:37:15;;;;;;;7.30;4.65;;;;;;;9.16;96.97;98268.22;1754931;80;20992;-57
2021/12/31 09:39:42;;;;;;;4.00;2.90;;;;;;;9.15;96.81;98271.45;1733389;81;21444;-57
2021/12/31 09:42:09;;;;;;;3.50;2.40;;;;;;;9.12;96.68;98267.91;1737011;80;20945;-57
2021/12/31 09:44:37;;;;;;;3.83;2.52;;;;;;;9.11;96.67;98278.45;1719785;82;21398;-57
2021/12/31 09:47:10;;;;;;;4.28;2.58;;;;;;;9.10;96.51;98276.83;1744278;81;20944;-57
2021/12/31 09:49:38;;;;;;;4.97;3.25;;;;;;;9.08;96.74;98278.99;1725844;82;21016;-57
2021/12/31 09:52:10;;;;;;;2.72;1.90;;;;;;;9.11;96.62;98275.75;1753266;80;20953;-57
2021/12/31 09:54:47;;;;;;;4.42;3.05;;;;;;;9.10;96.61;98280.08;1730989;81;20986;-57
2021/12/31 09:57:17;;;;;;;4.37;2.02;;;;;;;9.11;96.55;98271.70;1746940;80;21405;-57
2021/12/31 09:59:46;;;;;;;3.85;1.75;;;;;;;9.17;96.23;98263.08;1728723;80;21017;-57
2021/12/31 10:02:15;;;;;;;2.50;1.80;;;;;;;9.17;96.23;98263.08;1734920;80;25812;-57
2021/12/31 10:04:56;;;;;;;3.17;1.98;;;;;;;9.25;96.27;98255.81;1741947;81;20964;-57
2021/12/31 10:07:24;;;;;;;2.85;2.15;;;;;;;9.31;96.28;98261.48;1723634;81;20992;-57
2021/12/31 10:10:11;;;;;;;4.17;2.33;;;;;;;9.31;96.28;98261.48;1733052;81;21546;-58
2021/12/31 10:12:53;;;;;;;4.67;2.55;;;;;;;9.31;96.09;98260.14;1737736;80;21401;-57
2021/12/31 10:15:24;;;;;;;3.95;3.05;;;;;;;9.32;96.08;98265.84;1738249;80;20977;-57
2021/12/31 10:17:51;;;;;;;3.77;3.00;;;;;;;9.29;95.95;98252.84;1738364;81;20997;-57
2021/12/31 10:20:19;;;;;;;4.00;2.47;;;;;;;9.47;95.74;98267.22;1738675;81;20953;-57
2021/12/31 10:22:45;;;;;;;5.45;3.12;;;;;;;9.47;95.74;98267.22;1755057;80;21164;-57
2021/12/31 10:25:22;;;;;;;4.47;3.25;;;;;;;9.48;95.44;98261.27;1762767;80;21402;-57
2021/12/31 10:27:50;;;;;;;4.83;2.90;;;;;;;9.55;95.44;98260.48;1739342;80;20978;-57
2021/12/31 10:30:22;;;;;;;4.30;2.60;;;;;;;9.59;95.27;98250.23;1745038;81;21024;-57
2021/12/31 10:32:50;;;;;;;4.78;3.58;;;;;;;9.65;95.02;98248.32;1731981;81;20953;-57
2021/12/31 10:35:21;;;;;;;4.40;2.83;;;;;;;9.72;95.00;98251.59;1738707;80;22324;-57
2021/12/31 10:37:57;;;;;;;4.67;2.87;;;;;;;9.76;94.67;98241.05;1726443;80;21067;-57
2021/12/31 10:40:43;;;;;;;5.17;3.02;;;;;;;9.85;94.69;98249.72;1729847;80;21452;-57
2021/12/31 10:43:17;;;;;;;4.83;3.45;;;;;;;9.95;94.35;98252.17;1753552;80;21008;-57
2021/12/31 10:46:04;;;;;;;5.80;3.55;;;;;;;9.96;94.21;98247.02;1759077;80;21443;-57
2021/12/31 10:48:46;;;;;;;6.85;3.25;;;;;;;9.97;94.21;98258.12;1748094;80;21966;-57
2021/12/31 10:51:16;;;;;;;5.90;3.55;;;;;;;9.97;93.86;98252.70;1743022;80;21386;-57
2021/12/31 10:53:50;;;;;;;13.22;6.65;;;;;;;9.96;93.81;98253.79;1698022;83;20991;-58
2021/12/31 10:56:14;;;;;;;7.08;3.92;;;;;;;9.94;93.73;98243.23;1687583;83;21026;-57
2021/12/31 10:58:45;;;;;;;5.87;4.13;;;;;;;9.90;93.74;98242.13;1711750;83;21050;-57
2021/12/31 11:01:15;;;;;;;5.45;3.80;;;;;;;9.88;93.76;98237.00;1713643;82;21329;-57
2021/12/31 11:03:41;;;;;;;7.08;4.42;;;;;;;9.87;93.75;98236.73;1713573;82;21069;-57
2021/12/31 11:06:13;;;;;;;7.53;4.42;;;;;;;9.84;93.54;98234.57;1711166;83;20993;-58
2021/12/31 11:08:37;;;;;;;7.75;4.22;;;;;;;9.81;93.84;98232.38;1710352;83;21612;-57
2021/12/31 11:11:04;;;;;;;5.10;3.58;;;;;;;9.78;93.74;98234.28;1711377;83;20989;-57
2021/12/31 11:13:31;;;;;;;6.60;4.50;;;;;;;9.77;93.88;98231.31;1730946;82;21027;-58
2021/12/31 11:15:59;;;;;;;6.05;4.00;;;;;;;9.75;93.90;98229.42;1716035;81;20993;-58
2021/12/31 11:18:26;;;;;;;6.40;3.87;;;;;;;9.75;93.93;98235.38;1725672;81;21472;-58
2021/12/31 11:21:01;;;;;;;6.58;3.85;;;;;;;9.75;93.87;98236.73;1719674;81;21076;-57
2021/12/31 11:23:30;;;;;;;6.60;4.17;;;;;;;9.74;93.92;98231.02;1731796;82;21453;-58
2021/12/31 11:26:01;;;;;;;7.10;4.85;;;;;;;9.75;93.93;98237.54;1718332;82;21352;-58
2021/12/31 11:28:35;;;;;;;7.15;5.05;;;;;;;9.76;93.92;98235.10;1746465;80;20982;-57
2021/12/31 11:31:21;;;;;;;8.60;4.40;;;;;;;9.78;93.81;98231.58;1749269;80;21062;-57
2021/12/31 11:34:08;;;;;;;10.60;5.35;;;;;;;9.80;94.04;98232.11;1745389;80;21039;-57
2021/12/31 11:36:39;;;;;;;8.88;5.83;;;;;;;9.83;93.81;98227.54;1748176;82;21047;-57
2021/12/31 11:39:29;;;;;;;14.00;7.97;;;;;;;9.86;93.50;98210.75;1760337;81;21349;-58
2021/12/31 11:41:59;;;;;;;24.10;16.02;;;;;;;9.88;93.60;98209.93;1746543;81;21028;-57
2021/12/31 11:44:26;;;;;;;11.73;8.50;;;;;;;9.90;93.57;98208.30;1738338;81;21311;-58
2021/12/31 11:47:16;;;;;;;10.20;6.58;;;;;;;9.90;93.56;98198.83;1761736;80;21052;-57
2021/12/31 11:49:45;;;;;;;17.62;11.90;;;;;;;9.95;93.40;98208.31;1728470;82;20988;-58